createdAt,value
2017-09-25T00:02:12.298Z,80.62
2017-09-25T00:04:41.335Z,80.28
2017-09-25T00:07:09.599Z,80.40
2017-09-25T00:09:37.871Z,80.38
2017-09-25T00:12:06.138Z,80.22
2017-09-25T00:14:34.394Z,80.13
2017-09-25T00:17:02.655Z,80.32
2017-09-25T00:19:30.918Z,80.21
2017-09-25T00:21:59.190Z,80.25
2017-09-25T00:24:27.452Z,80.53
2017-09-25T00:26:55.724Z,80.70
2017-09-25T00:29:23.991Z,80.91
2017-09-25T00:31:52.259Z,80.76
2017-09-25T00:34:21.279Z,80.90
2017-09-25T00:36:49.556Z,81.20
2017-09-25T00:39:17.811Z,81.25
2017-09-25T00:41:46.076Z,81.58
2017-09-25T00:44:15.100Z,81.92
2017-09-25T00:46:43.363Z,82.02
2017-09-25T00:49:11.623Z,82.37
2017-09-25T00:51:40.642Z,82.36
2017-09-25T00:54:08.915Z,82.34
2017-09-25T00:56:37.180Z,82.31
2017-09-25T00:59:05.432Z,82.58
2017-09-25T01:05:01.843Z,82.52
2017-09-25T01:07:30.109Z,82.46
2017-09-25T01:09:58.377Z,82.63
2017-09-25T01:12:26.632Z,82.60
2017-09-25T01:14:54.959Z,82.77
2017-09-25T01:17:23.228Z,82.93
2017-09-25T01:19:51.485Z,82.54
2017-09-25T01:22:19.756Z,82.88
2017-09-25T01:24:48.007Z,83.28
2017-09-25T01:27:16.297Z,83.47
2017-09-25T01:29:44.551Z,83.34
2017-09-25T01:32:13.584Z,83.47
2017-09-25T01:34:41.838Z,83.44
2017-09-25T01:37:10.104Z,83.26
2017-09-25T01:39:38.358Z,83.37
2017-09-25T01:42:07.389Z,83.26
2017-09-25T01:44:35.643Z,83.05
2017-09-25T01:47:03.911Z,83.14
2017-09-25T01:49:32.944Z,83.50
2017-09-25T01:52:01.204Z,83.64
2017-09-25T01:54:29.471Z,84.22
2017-09-25T01:56:57.740Z,84.52
2017-09-25T01:59:25.995Z,84.86
2017-09-25T02:01:55.032Z,84.95
2017-09-25T02:04:23.299Z,85.20
2017-09-25T02:06:51.562Z,85.37
2017-09-25T02:09:20.587Z,85.28
2017-09-25T02:11:48.854Z,85.03
2017-09-25T02:14:17.108Z,84.85
2017-09-25T02:16:45.377Z,84.71
2017-09-25T02:19:14.391Z,84.82
2017-09-25T02:21:42.651Z,84.92
2017-09-25T02:24:11.674Z,85.21
2017-09-25T02:26:39.936Z,85.48
2017-09-25T02:29:08.195Z,85.53
2017-09-25T02:31:36.448Z,85.62
2017-09-25T02:34:05.483Z,85.37
2017-09-25T02:36:33.731Z,85.46
2017-09-25T02:39:02.788Z,85.44
2017-09-25T02:41:31.045Z,85.44
2017-09-25T02:43:59.747Z,85.46
2017-09-25T02:46:27.998Z,85.47
2017-09-25T02:48:56.259Z,85.49
2017-09-25T02:51:24.508Z,85.27
2017-09-25T02:53:53.534Z,85.35
2017-09-25T02:56:21.781Z,85.37
2017-09-25T02:58:50.803Z,85.53
2017-09-25T03:01:19.052Z,85.55
2017-09-25T03:03:48.080Z,85.56
2017-09-25T03:06:16.327Z,85.32
2017-09-25T03:08:44.591Z,85.44
2017-09-25T03:11:13.607Z,85.83
2017-09-25T03:13:41.874Z,86.36
2017-09-25T03:16:10.115Z,86.75
2017-09-25T03:18:38.370Z,86.98
2017-09-25T03:21:06.711Z,87.04
2017-09-25T03:23:35.343Z,87.02
2017-09-25T03:26:03.599Z,86.89
2017-09-25T03:28:31.863Z,86.95
2017-09-25T03:31:00.113Z,86.69
2017-09-25T03:33:28.372Z,85.99
2017-09-25T03:35:57.387Z,85.42
2017-09-25T03:38:25.651Z,85.61
2017-09-25T03:40:53.898Z,85.36
2017-09-25T03:43:22.215Z,85.34
2017-09-25T03:45:50.466Z,85.86
2017-09-25T03:48:19.488Z,86.07
2017-09-25T03:50:47.739Z,86.23
2017-09-25T03:53:16.015Z,86.38
2017-09-25T03:55:45.040Z,86.51
2017-09-25T03:58:13.309Z,86.47
2017-09-25T04:00:41.550Z,86.45
2017-09-25T04:03:10.583Z,86.86
2017-09-25T04:05:38.841Z,86.79
2017-09-25T04:08:07.103Z,87.16
2017-09-25T04:10:35.368Z,87.23
2017-09-25T04:13:04.397Z,87.11
2017-09-25T04:15:32.650Z,86.82
2017-09-25T04:18:00.919Z,86.52
2017-09-25T04:20:29.174Z,86.41
2017-09-25T04:22:57.436Z,86.17
2017-09-25T04:25:25.687Z,85.96
2017-09-25T04:27:53.953Z,85.78
2017-09-25T04:30:22.202Z,85.87
2017-09-25T04:32:51.228Z,85.69
2017-09-25T04:35:19.487Z,85.50
2017-09-25T04:37:47.752Z,85.57
2017-09-25T04:40:16.011Z,86.27
2017-09-25T04:42:45.033Z,86.30
2017-09-25T04:45:13.277Z,86.53
2017-09-25T04:47:42.312Z,86.46
2017-09-25T04:50:10.566Z,86.65
2017-09-25T04:52:38.818Z,86.29
2017-09-25T04:55:07.839Z,86.15
2017-09-25T04:57:36.099Z,86.52
2017-09-25T05:00:05.136Z,86.67
2017-09-25T05:02:33.400Z,86.56
2017-09-25T05:05:01.646Z,86.58
2017-09-25T05:07:30.682Z,86.29
2017-09-25T05:09:58.947Z,86.13
2017-09-25T05:12:27.200Z,86.10
2017-09-25T05:14:55.456Z,85.97
2017-09-25T05:17:24.471Z,85.87
2017-09-25T05:19:52.728Z,85.35
2017-09-25T05:22:21.739Z,84.78
2017-09-25T05:24:50.005Z,84.60
2017-09-25T05:27:19.224Z,85.07
2017-09-25T05:29:47.478Z,84.59
2017-09-25T05:32:15.772Z,84.24
2017-09-25T05:34:44.034Z,84.04
2017-09-25T05:37:12.278Z,84.90
2017-09-25T05:39:40.540Z,84.99
2017-09-25T05:42:08.799Z,85.18
2017-09-25T05:44:37.062Z,85.23
2017-09-25T05:47:05.315Z,84.51
2017-09-25T05:49:33.580Z,84.89
2017-09-25T05:52:02.601Z,85.55
2017-09-25T05:54:30.863Z,85.29
2017-09-25T05:56:59.110Z,85.22
2017-09-25T05:59:28.137Z,85.32
2017-09-25T06:01:56.387Z,85.29
2017-09-25T06:04:25.411Z,85.45
2017-09-25T06:06:53.664Z,85.47
2017-09-25T06:09:22.686Z,84.98
2017-09-25T06:11:50.943Z,84.73
2017-09-25T06:14:19.196Z,84.52
2017-09-25T06:16:48.223Z,84.34
2017-09-25T06:19:16.483Z,84.49
2017-09-25T06:21:44.728Z,84.40
2017-09-25T06:24:12.991Z,84.29
2017-09-25T06:26:41.235Z,84.02
2017-09-25T06:29:09.495Z,83.97
2017-09-25T06:31:37.756Z,84.47
2017-09-25T06:34:06.020Z,84.76
2017-09-25T06:36:35.044Z,85.26
2017-09-25T06:39:03.311Z,85.04
2017-09-25T06:41:31.567Z,84.79
2017-09-25T06:44:00.595Z,84.48
2017-09-25T06:46:28.844Z,84.96
2017-09-25T06:48:57.875Z,84.77
2017-09-25T06:51:26.135Z,84.72
2017-09-25T06:53:54.390Z,85.00
2017-09-25T06:56:22.658Z,84.66
2017-09-25T06:58:51.680Z,84.25
2017-09-25T07:01:19.935Z,83.84
2017-09-25T07:03:48.200Z,84.14
2017-09-25T07:06:17.221Z,84.05
2017-09-25T07:08:45.482Z,83.62
2017-09-25T07:11:13.739Z,83.60
2017-09-25T07:13:42.776Z,84.00
2017-09-25T07:16:11.037Z,83.28
2017-09-25T07:18:39.299Z,82.25
2017-09-25T07:21:08.325Z,81.40
2017-09-25T07:23:36.591Z,81.36
2017-09-25T07:26:04.852Z,80.50
2017-09-25T07:28:33.129Z,80.79
2017-09-25T07:31:01.383Z,81.05
2017-09-25T07:33:30.416Z,80.08
2017-09-25T07:35:58.670Z,80.28
2017-09-25T07:38:26.937Z,80.03
2017-09-25T07:40:55.191Z,79.50
2017-09-25T07:43:24.218Z,81.55
2017-09-25T07:45:52.475Z,81.16
2017-09-25T07:48:21.514Z,80.49
2017-09-25T07:50:49.768Z,79.20
2017-09-25T07:53:18.028Z,78.91
2017-09-25T07:55:46.320Z,79.05
2017-09-25T07:58:14.579Z,78.77
2017-09-25T08:00:42.839Z,77.21
2017-09-25T08:03:11.872Z,76.46
2017-09-25T08:05:40.140Z,74.94
2017-09-25T08:08:08.399Z,74.66
2017-09-25T08:10:36.667Z,73.40
2017-09-25T08:13:04.932Z,73.05
2017-09-25T08:15:33.968Z,72.76
2017-09-25T08:18:02.219Z,71.51
2017-09-25T08:20:30.483Z,70.21
2017-09-25T08:22:59.511Z,69.19
2017-09-25T08:25:27.782Z,68.15
2017-09-25T08:27:56.043Z,68.25
2017-09-25T08:30:24.311Z,66.79
2017-09-25T08:32:53.335Z,65.61
2017-09-25T08:35:21.596Z,66.50
2017-09-25T08:37:49.855Z,65.77
2017-09-25T08:40:18.893Z,64.13
2017-09-25T08:42:47.164Z,65.35
2017-09-25T08:45:15.425Z,66.50
2017-09-25T08:47:43.683Z,65.55
2017-09-25T08:50:11.952Z,65.56
2017-09-25T08:52:40.980Z,64.99
2017-09-25T08:55:09.235Z,65.17
2017-09-25T08:57:37.494Z,64.74
2017-09-25T09:00:06.531Z,64.76
2017-09-25T09:02:34.790Z,63.67
2017-09-25T09:05:03.047Z,63.71
2017-09-25T09:07:31.308Z,64.16
2017-09-25T09:10:00.342Z,63.90
2017-09-25T09:12:28.592Z,64.67
2017-09-25T09:14:56.860Z,64.95
2017-09-25T09:17:25.883Z,64.19
2017-09-25T09:19:54.149Z,63.58
2017-09-25T09:22:22.402Z,64.20
2017-09-25T09:24:51.431Z,63.65
2017-09-25T09:27:19.693Z,64.11
2017-09-25T09:29:47.949Z,65.46
2017-09-25T09:32:16.968Z,64.96
2017-09-25T09:34:45.239Z,63.12
2017-09-25T09:37:13.504Z,61.18
2017-09-25T09:39:41.772Z,61.54
2017-09-25T09:42:10.787Z,61.70
2017-09-25T09:44:39.052Z,62.31
2017-09-25T09:47:07.308Z,63.06
2017-09-25T09:49:36.342Z,62.85
2017-09-25T09:52:04.606Z,62.65
2017-09-25T09:54:32.867Z,60.93
2017-09-25T09:57:01.130Z,61.06
2017-09-25T09:59:30.164Z,61.37
2017-09-25T10:01:58.423Z,61.34
2017-09-25T10:04:26.702Z,62.56
2017-09-25T10:06:54.952Z,61.25
2017-09-25T10:09:23.990Z,60.81
2017-09-25T10:11:52.247Z,60.52
2017-09-25T10:14:20.512Z,59.89
2017-09-25T10:16:48.768Z,60.75
2017-09-25T10:19:17.799Z,61.05
2017-09-25T10:21:46.075Z,59.21
2017-09-25T10:24:14.342Z,60.41
2017-09-25T10:26:42.597Z,58.98
2017-09-25T10:29:11.631Z,56.89
2017-09-25T10:31:39.897Z,55.93
2017-09-25T10:34:08.155Z,55.94
2017-09-25T10:36:36.742Z,58.51
2017-09-25T10:39:04.997Z,57.54
2017-09-25T10:41:34.034Z,54.69
2017-09-25T10:44:02.288Z,54.09
2017-09-25T10:46:30.559Z,53.97
2017-09-25T10:48:58.820Z,54.40
2017-09-25T10:51:27.861Z,53.90
2017-09-25T10:53:56.117Z,50.26
2017-09-25T10:56:24.380Z,49.23
2017-09-25T10:58:52.637Z,50.43
2017-09-25T11:01:21.666Z,48.37
2017-09-25T11:03:49.926Z,48.98
2017-09-25T11:06:18.191Z,50.14
2017-09-25T11:08:46.457Z,49.95
2017-09-25T11:11:15.475Z,50.34
2017-09-25T11:13:43.729Z,50.15
2017-09-25T11:16:12.751Z,47.27
2017-09-25T11:18:41.008Z,46.73
2017-09-25T11:21:09.267Z,47.65
2017-09-25T11:23:38.286Z,46.09
2017-09-25T11:26:06.539Z,43.85
2017-09-25T11:28:34.789Z,48.76
2017-09-25T11:31:03.052Z,49.84
2017-09-25T11:33:31.304Z,48.83
2017-09-25T11:35:59.564Z,48.21
2017-09-25T11:38:27.811Z,50.57
2017-09-25T11:40:56.832Z,49.34
2017-09-25T11:43:25.075Z,50.53
2017-09-25T11:45:54.105Z,50.29
2017-09-25T11:48:22.357Z,50.35
2017-09-25T11:50:50.621Z,49.93
2017-09-25T11:53:19.629Z,48.81
2017-09-25T11:55:47.888Z,50.48
2017-09-25T11:58:16.903Z,51.52
2017-09-25T12:00:45.169Z,51.16
2017-09-25T12:03:14.188Z,50.84
2017-09-25T12:05:42.440Z,49.33
2017-09-25T12:08:10.692Z,53.06
2017-09-25T12:10:38.943Z,52.57
2017-09-25T12:13:07.197Z,50.17
2017-09-25T12:15:35.457Z,50.61
2017-09-25T12:18:04.474Z,50.59
2017-09-25T12:20:32.731Z,48.59
2017-09-25T12:23:00.979Z,48.05
2017-09-25T12:25:29.234Z,46.99
2017-09-25T12:27:57.484Z,46.68
2017-09-25T12:30:25.747Z,48.14
2017-09-25T12:32:53.996Z,49.47
2017-09-25T12:35:23.024Z,48.90
2017-09-25T12:37:51.272Z,48.12
2017-09-25T12:40:20.293Z,49.13
2017-09-25T12:42:48.543Z,49.12
2017-09-25T12:45:16.807Z,48.78
2017-09-25T12:47:45.828Z,46.27
2017-09-25T12:50:14.079Z,48.57
2017-09-25T12:52:43.095Z,46.30
2017-09-25T12:55:11.359Z,48.87
2017-09-25T12:57:39.602Z,48.05
2017-09-25T13:00:07.871Z,49.12
2017-09-25T13:02:36.975Z,50.40
2017-09-25T13:05:05.232Z,47.98
2017-09-25T13:07:33.484Z,44.84
2017-09-25T13:10:01.746Z,45.22
2017-09-25T13:12:30.007Z,43.15
2017-09-25T13:14:58.265Z,39.23
2017-09-25T13:17:27.278Z,39.20
2017-09-25T13:19:55.527Z,45.03
2017-09-25T13:22:24.561Z,45.45
2017-09-25T13:24:52.810Z,49.53
2017-09-25T13:27:21.845Z,49.75
2017-09-25T13:29:50.091Z,50.74
2017-09-25T13:32:18.356Z,51.12
2017-09-25T13:34:47.370Z,51.88
2017-09-25T13:37:15.631Z,51.22
2017-09-25T13:39:44.650Z,50.64
2017-09-25T13:42:12.913Z,51.48
2017-09-25T13:44:41.159Z,53.05
2017-09-25T13:47:10.184Z,52.57
2017-09-25T13:49:38.444Z,52.45
2017-09-25T13:52:07.467Z,53.05
2017-09-25T13:54:35.728Z,53.04
2017-09-25T13:57:03.990Z,53.31
2017-09-25T14:04:39.391Z,53.65
2017-09-25T14:07:07.699Z,54.62
2017-09-25T14:09:36.007Z,53.90
2017-09-25T14:12:05.083Z,45.62
2017-09-25T14:14:33.379Z,43.82
2017-09-25T14:17:02.453Z,42.58
2017-09-25T14:19:30.752Z,39.54
2017-09-25T14:21:59.821Z,42.05
2017-09-25T14:24:28.114Z,40.82
2017-09-25T14:26:57.191Z,41.65
2017-09-25T14:29:25.498Z,45.95
2017-09-25T14:31:54.577Z,47.81
2017-09-25T14:34:23.646Z,49.24
2017-09-25T14:36:51.951Z,51.89
2017-09-25T14:39:21.028Z,52.29
2017-09-25T14:41:49.327Z,49.52
2017-09-25T14:44:18.459Z,51.62
2017-09-25T14:46:46.769Z,51.03
2017-09-25T14:49:15.069Z,50.01
2017-09-25T14:51:44.147Z,47.29
2017-09-25T14:54:12.453Z,42.15
2017-09-25T14:56:41.530Z,42.04
2017-09-25T14:59:09.835Z,40.26
2017-09-25T15:01:38.141Z,41.82
2017-09-25T15:04:06.451Z,45.73
2017-09-25T15:06:34.755Z,48.34
2017-09-25T15:09:03.829Z,45.97
2017-09-25T15:11:32.140Z,43.58
2017-09-25T15:14:00.450Z,41.34
2017-09-25T15:16:28.758Z,44.33
2017-09-25T15:18:57.052Z,41.51
2017-09-25T15:21:26.123Z,42.79
2017-09-25T15:23:54.418Z,39.19
2017-09-25T15:26:22.723Z,40.70
2017-09-25T15:28:51.021Z,42.78
2017-09-25T15:31:19.338Z,43.24
2017-09-25T15:33:48.669Z,41.27
2017-09-25T15:36:16.979Z,40.15
2017-09-25T15:38:45.279Z,41.67
2017-09-25T15:41:13.582Z,42.13
2017-09-25T15:43:42.649Z,43.56
2017-09-25T15:46:10.950Z,42.97
2017-09-25T15:48:40.011Z,44.81
2017-09-25T15:51:08.319Z,43.95
2017-09-25T15:53:37.369Z,42.43
2017-09-25T15:56:05.667Z,41.17
2017-09-25T15:58:35.484Z,43.64
2017-09-25T16:01:03.779Z,45.04
2017-09-25T16:03:32.855Z,47.51
2017-09-25T16:06:01.171Z,50.35
2017-09-25T16:08:29.472Z,52.93
2017-09-25T16:10:57.766Z,55.33
2017-09-25T16:13:26.082Z,56.46
2017-09-25T16:15:55.146Z,56.03
2017-09-25T16:18:23.452Z,57.83
2017-09-25T16:20:52.516Z,57.80
2017-09-25T16:23:20.829Z,58.05
2017-09-25T16:25:49.898Z,58.83
2017-09-25T16:28:19.711Z,58.95
2017-09-25T16:30:48.007Z,58.82
2017-09-25T16:33:17.095Z,59.12
2017-09-25T16:35:46.166Z,59.79
2017-09-25T16:38:15.986Z,60.61
2017-09-25T16:40:45.051Z,60.30
2017-09-25T16:43:13.359Z,60.55
2017-09-25T16:45:43.167Z,59.94
2017-09-25T16:48:11.482Z,61.82
2017-09-25T16:50:39.787Z,61.62
2017-09-25T16:53:08.099Z,63.33
2017-09-25T16:55:37.167Z,64.11
2017-09-25T16:58:05.475Z,65.25
2017-09-25T17:00:33.786Z,65.90
2017-09-25T17:03:02.094Z,66.45
2017-09-25T17:05:30.399Z,67.21
2017-09-25T17:07:58.765Z,68.33
2017-09-25T17:10:27.063Z,68.39
2017-09-25T17:12:56.136Z,69.01
2017-09-25T17:15:24.442Z,69.01
2017-09-25T17:17:53.515Z,70.04
2017-09-25T17:20:21.835Z,70.03
2017-09-25T17:22:50.152Z,70.34
2017-09-25T17:25:18.463Z,70.57
2017-09-25T17:27:47.552Z,70.60
2017-09-25T17:30:16.627Z,70.35
2017-09-25T17:32:45.726Z,70.17
2017-09-25T17:35:14.040Z,70.35
2017-09-25T17:37:42.358Z,70.18
2017-09-25T17:40:10.673Z,70.75
2017-09-25T17:42:39.760Z,70.83
2017-09-25T17:45:08.071Z,70.52
2017-09-25T17:47:36.390Z,70.60
2017-09-25T17:50:04.694Z,70.76
2017-09-25T17:52:33.016Z,71.17
2017-09-25T17:55:01.321Z,71.40
2017-09-25T17:57:29.640Z,71.56
2017-09-25T17:59:58.719Z,72.19
2017-09-25T18:02:27.040Z,72.84
2017-09-25T18:04:55.351Z,72.71
2017-09-25T18:07:23.663Z,72.27
2017-09-25T18:09:52.742Z,72.21
2017-09-25T18:12:21.052Z,72.41
2017-09-25T18:14:49.357Z,72.25
2017-09-25T18:17:17.672Z,72.02
2017-09-25T18:19:45.977Z,72.17
2017-09-25T18:22:14.297Z,72.53
2017-09-25T18:24:42.603Z,72.45
2017-09-25T18:27:10.922Z,73.11
2017-09-25T18:29:39.232Z,73.73
2017-09-25T18:32:07.546Z,73.63
2017-09-25T18:34:36.629Z,73.41
2017-09-25T18:37:05.714Z,73.42
2017-09-25T18:39:34.024Z,73.76
2017-09-25T18:42:03.100Z,73.69
2017-09-25T18:44:32.171Z,73.87
2017-09-25T18:47:00.484Z,73.64
2017-09-25T18:49:29.555Z,73.81
2017-09-25T18:51:57.865Z,73.94
2017-09-25T18:54:26.171Z,74.05
2017-09-25T18:56:54.503Z,73.54
2017-09-25T18:59:22.826Z,74.30
2017-09-25T19:01:51.913Z,74.46
2017-09-25T19:04:20.315Z,74.66
2017-09-25T19:06:48.624Z,74.91
2017-09-25T19:09:16.943Z,75.03
2017-09-25T19:11:47.002Z,75.18
2017-09-25T19:14:15.311Z,74.99
2017-09-25T19:16:43.703Z,75.15
2017-09-25T19:19:12.807Z,75.39
2017-09-25T19:21:43.353Z,75.55
2017-09-25T19:24:12.436Z,75.59
2017-09-25T19:26:40.776Z,75.98
2017-09-25T19:29:09.090Z,75.94
2017-09-25T19:31:37.396Z,75.66
2017-09-25T19:34:05.718Z,75.90
2017-09-25T19:36:34.036Z,75.85
2017-09-25T19:39:03.210Z,76.02
2017-09-25T19:41:31.519Z,75.51
2017-09-25T19:44:01.585Z,75.57
2017-09-25T19:46:29.902Z,75.87
2017-09-25T19:49:01.366Z,75.78
2017-09-25T19:51:29.680Z,75.61
2017-09-25T19:53:59.799Z,76.14
2017-09-25T19:56:28.464Z,76.51
2017-09-25T19:58:56.841Z,76.88
2017-09-25T20:01:25.911Z,77.28
2017-09-25T20:03:54.220Z,76.82
2017-09-25T20:06:23.294Z,76.55
2017-09-25T20:08:51.627Z,76.66
2017-09-25T20:11:19.926Z,76.86
2017-09-25T20:13:48.641Z,77.17
2017-09-25T20:16:21.318Z,77.30
2017-09-25T20:18:49.655Z,77.21
2017-09-25T20:21:17.963Z,77.13
2017-09-25T20:23:46.280Z,77.46
2017-09-25T20:26:14.592Z,77.54
2017-09-25T20:28:42.908Z,77.51
2017-09-25T20:31:11.973Z,77.44
2017-09-25T20:33:40.284Z,77.69
2017-09-25T20:36:09.354Z,77.98
2017-09-25T20:38:37.663Z,78.00
2017-09-25T20:41:06.634Z,78.18
2017-09-25T20:43:38.899Z,77.71
2017-09-25T20:46:08.024Z,78.02
2017-09-25T20:48:36.335Z,78.18
2017-09-25T20:51:04.688Z,78.16
2017-09-25T20:53:33.003Z,78.24
2017-09-25T20:56:01.307Z,78.37
2017-09-25T20:58:30.383Z,78.41
2017-09-25T21:00:58.691Z,78.81
2017-09-25T21:03:27.794Z,78.88
2017-09-25T21:05:56.106Z,78.86
2017-09-25T21:08:24.411Z,78.95
2017-09-25T21:10:53.535Z,78.88
2017-09-25T21:13:21.979Z,79.13
2017-09-25T21:15:50.296Z,79.32
2017-09-25T21:18:19.366Z,79.41
2017-09-25T21:20:47.681Z,79.58
2017-09-25T21:23:15.986Z,79.61
2017-09-25T21:25:44.615Z,79.50
2017-09-25T21:28:13.710Z,79.71
2017-09-25T21:30:42.792Z,79.73
2017-09-25T21:33:11.098Z,80.00
2017-09-25T21:35:39.410Z,80.07
2017-09-25T21:38:07.723Z,80.44
2017-09-25T21:40:36.055Z,80.60
2017-09-25T21:43:04.363Z,80.71
2017-09-25T21:45:32.690Z,80.70
2017-09-25T21:48:00.995Z,80.62
2017-09-25T21:50:29.303Z,80.91
2017-09-25T21:52:58.404Z,81.01
2017-09-25T21:55:27.479Z,81.25
2017-09-25T21:57:55.801Z,81.37
2017-09-25T22:02:51.828Z,81.55
2017-09-25T22:05:20.161Z,81.49
2017-09-25T22:07:48.477Z,81.63
2017-09-25T22:10:16.779Z,81.83
2017-09-25T22:12:45.094Z,82.12
2017-09-25T22:15:13.448Z,81.64
2017-09-25T22:17:41.798Z,82.19
2017-09-25T22:20:10.881Z,81.81
2017-09-25T22:22:39.208Z,82.13
2017-09-25T22:25:07.519Z,82.13
2017-09-25T22:27:35.818Z,82.22
2017-09-25T22:30:04.900Z,81.94
2017-09-25T22:32:33.210Z,82.25
2017-09-25T22:35:01.519Z,82.42
2017-09-25T22:37:29.844Z,82.61
2017-09-25T22:40:00.787Z,82.78
2017-09-25T22:42:38.387Z,82.82
2017-09-25T22:45:06.707Z,82.83
2017-09-25T22:47:35.011Z,83.00
2017-09-25T22:50:03.319Z,83.17
2017-09-25T22:52:31.641Z,82.91
2017-09-25T22:54:59.955Z,82.86
2017-09-25T22:57:29.026Z,83.00
2017-09-25T22:59:57.342Z,83.06
2017-09-25T23:02:25.642Z,83.05
2017-09-25T23:04:57.463Z,83.19
2017-09-25T23:07:26.532Z,83.44
2017-09-25T23:09:56.791Z,83.56
2017-09-25T23:12:25.106Z,83.73
2017-09-25T23:14:53.419Z,84.05
2017-09-25T23:17:21.765Z,84.00
2017-09-25T23:19:50.067Z,83.85
2017-09-25T23:22:18.375Z,83.85
2017-09-25T23:24:46.679Z,84.05
2017-09-25T23:27:14.993Z,84.27
2017-09-25T23:29:44.765Z,84.07
2017-09-25T23:32:13.070Z,84.00
2017-09-25T23:34:41.366Z,84.07
2017-09-25T23:37:09.690Z,84.22
2017-09-25T23:39:37.992Z,84.12
2017-09-25T23:42:06.302Z,84.13
2017-09-25T23:44:35.366Z,83.98
2017-09-25T23:47:03.679Z,83.77
2017-09-25T23:49:32.747Z,83.70
2017-09-25T23:52:01.055Z,83.83
2017-09-25T23:54:30.119Z,83.60
2017-09-25T23:56:58.444Z,83.61
2017-09-25T23:59:26.738Z,83.64
